createdAt,value
2018-11-26T00:01:54.133Z,99387.49
2018-11-26T00:04:23.636Z,99380.73
2018-11-26T00:06:53.111Z,99382.37
2018-11-26T00:09:22.663Z,99365.93
2018-11-26T00:11:52.156Z,99358.10
2018-11-26T00:14:21.655Z,99354.36
2018-11-26T00:16:51.186Z,99361.39
2018-11-26T00:19:20.737Z,99379.50
2018-11-26T00:21:50.228Z,99371.61
2018-11-26T00:24:19.780Z,99366.69
2018-11-26T00:26:49.267Z,99361.82
2018-11-26T00:29:18.847Z,99350.48
2018-11-26T00:31:48.323Z,99347.72
2018-11-26T00:34:17.815Z,99346.06
2018-11-26T00:36:47.270Z,99347.50
2018-11-26T00:39:16.798Z,99340.73
2018-11-26T00:41:46.312Z,99336.43
2018-11-26T00:44:15.874Z,99332.63
2018-11-26T00:46:45.314Z,99327.23
2018-11-26T00:49:14.883Z,99326.16
2018-11-26T00:51:44.353Z,99330.52
2018-11-26T00:54:13.870Z,99334.86
2018-11-26T00:56:43.394Z,99342.42
2018-11-26T00:59:12.874Z,99188.22
2018-11-26T01:01:42.400Z,99329.81
2018-11-26T01:04:11.892Z,99325.22
2018-11-26T01:06:41.438Z,99315.00
2018-11-26T01:09:10.960Z,99313.92
2018-11-26T01:11:40.467Z,99313.92
2018-11-26T01:14:09.992Z,99314.77
2018-11-26T01:16:39.487Z,99302.84
2018-11-26T01:19:09.024Z,99302.61
2018-11-26T01:21:38.520Z,99298.83
2018-11-26T01:24:08.054Z,99294.50
2018-11-26T01:26:37.547Z,99278.79
2018-11-26T01:29:07.150Z,99267.98
2018-11-26T01:31:36.659Z,99267.47
2018-11-26T01:34:06.231Z,99276.94
2018-11-26T01:36:35.747Z,99276.40
2018-11-26T01:39:07.120Z,99267.98
2018-11-26T01:41:36.926Z,99274.45
2018-11-26T01:44:06.801Z,99277.16
2018-11-26T01:46:36.271Z,99277.16
2018-11-26T01:49:05.935Z,99274.45
2018-11-26T01:51:35.452Z,99267.66
2018-11-26T01:54:05.015Z,99262.25
2018-11-26T01:56:34.511Z,99256.77
2018-11-26T01:59:04.075Z,99269.41
2018-11-26T02:01:33.548Z,99255.90
2018-11-26T02:04:03.051Z,99255.90
2018-11-26T02:06:32.520Z,99235.63
2018-11-26T02:09:02.064Z,99234.00
2018-11-26T02:11:31.558Z,99229.95
2018-11-26T02:14:01.064Z,99241.80
2018-11-26T02:16:30.614Z,99234.77
2018-11-26T02:19:00.127Z,99237.92
2018-11-26T02:21:29.647Z,99235.22
2018-11-26T02:23:59.123Z,99226.58
2018-11-26T02:26:28.634Z,99223.06
2018-11-26T02:28:58.115Z,99212.84
2018-11-26T02:31:27.623Z,99210.45
2018-11-26T02:33:57.108Z,99199.10
2018-11-26T02:36:26.598Z,99191.00
2018-11-26T02:38:56.073Z,99203.70
2018-11-26T02:41:25.575Z,99204.28
2018-11-26T02:43:55.095Z,99189.69
2018-11-26T02:46:24.620Z,99194.56
2018-11-26T02:48:54.170Z,99196.98
2018-11-26T02:51:23.718Z,99201.85
2018-11-26T02:53:53.260Z,99189.16
2018-11-26T02:56:22.869Z,99201.63
2018-11-26T02:58:52.397Z,99199.45
2018-11-26T03:01:21.871Z,99196.67
2018-11-26T03:03:51.414Z,99190.77
2018-11-26T03:06:20.897Z,99184.83
2018-11-26T03:08:50.419Z,99178.61
2018-11-26T03:11:19.878Z,99175.59
2018-11-26T03:13:49.434Z,99167.80
2018-11-26T03:16:18.918Z,99162.90
2018-11-26T03:18:48.480Z,99153.98
2018-11-26T03:21:17.955Z,99145.88
2018-11-26T03:23:47.466Z,99144.52
2018-11-26T03:26:16.947Z,99131.55
2018-11-26T03:28:46.458Z,99113.17
2018-11-26T03:31:15.951Z,99119.39
2018-11-26T03:33:45.530Z,99110.16
2018-11-26T03:36:15.039Z,99097.20
2018-11-26T03:38:58.895Z,99096.38
2018-11-26T03:41:28.495Z,99100.94
2018-11-26T03:43:58.013Z,99089.62
2018-11-26T03:46:27.552Z,99085.27
2018-11-26T03:48:57.062Z,99081.22
2018-11-26T03:51:26.550Z,99078.52
2018-11-26T03:53:56.071Z,99065.31
2018-11-26T03:56:25.538Z,99064.42
2018-11-26T03:58:55.063Z,99061.95
2018-11-26T04:01:24.548Z,99053.84
2018-11-26T04:03:54.067Z,99051.69
2018-11-26T04:06:23.539Z,99040.06
2018-11-26T04:08:53.082Z,99036.02
2018-11-26T04:11:22.590Z,99040.30
2018-11-26T04:13:52.088Z,99029.98
2018-11-26T04:16:21.600Z,99031.61
2018-11-26T04:18:51.072Z,99016.98
2018-11-26T04:21:20.603Z,99002.97
2018-11-26T04:23:50.075Z,99000.01
2018-11-26T04:26:19.595Z,98992.16
2018-11-26T04:28:49.054Z,99002.97
2018-11-26T04:31:18.574Z,99009.73
2018-11-26T04:33:48.048Z,98986.19
2018-11-26T04:36:17.576Z,99011.00
2018-11-26T04:38:47.123Z,99034.48
2018-11-26T04:41:16.610Z,99035.61
2018-11-26T04:43:46.116Z,99038.08
2018-11-26T04:46:15.578Z,99056.21
2018-11-26T04:48:45.075Z,99061.89
2018-11-26T04:51:14.552Z,99053.48
2018-11-26T04:53:44.067Z,99061.67
2018-11-26T04:56:13.604Z,99060.81
2018-11-26T04:58:43.131Z,99066.03
2018-11-26T05:01:12.635Z,99070.55
2018-11-26T05:03:42.149Z,99087.55
2018-11-26T05:06:11.653Z,99093.17
2018-11-26T05:08:41.199Z,99099.03
2018-11-26T05:11:10.755Z,99087.73
2018-11-26T05:13:40.291Z,99080.48
2018-11-26T05:16:09.784Z,99094.30
2018-11-26T05:18:39.315Z,99083.86
2018-11-26T05:21:08.795Z,99079.55
2018-11-26T05:23:38.319Z,99053.48
2018-11-26T05:26:07.800Z,99055.47
2018-11-26T05:28:37.295Z,99042.85
2018-11-26T05:31:08.134Z,99041.55
2018-11-26T05:33:36.622Z,99052.16
2018-11-26T05:36:06.172Z,99036.81
2018-11-26T05:38:35.679Z,99025.01
2018-11-26T05:41:05.204Z,99029.41
2018-11-26T05:43:34.778Z,99030.26
2018-11-26T05:46:05.108Z,99028.95
2018-11-26T05:48:34.615Z,99021.69
2018-11-26T05:51:04.127Z,99017.37
2018-11-26T05:53:33.591Z,99010.39
2018-11-26T05:56:03.139Z,99000.16
2018-11-26T05:58:32.650Z,98985.88
2018-11-26T06:01:02.179Z,98991.48
2018-11-26T06:03:31.675Z,98998.53
2018-11-26T06:06:01.201Z,99002.20
2018-11-26T06:08:30.695Z,99000.85
2018-11-26T06:11:00.229Z,99007.06
2018-11-26T06:13:29.748Z,99002.78
2018-11-26T06:15:59.332Z,99002.01
2018-11-26T06:18:28.819Z,99010.69
2018-11-26T06:20:58.331Z,99002.28
2018-11-26T06:23:27.818Z,99012.31
2018-11-26T06:25:59.925Z,98874.91
2018-11-26T06:28:29.614Z,99005.09
2018-11-26T06:30:59.546Z,99006.25
2018-11-26T06:33:30.062Z,99008.73
2018-11-26T06:36:00.122Z,98999.34
2018-11-26T06:38:29.686Z,98979.31
2018-11-26T06:40:59.332Z,98981.52
2018-11-26T06:43:28.876Z,98984.83
2018-11-26T06:45:58.681Z,98971.25
2018-11-26T06:48:28.300Z,98976.53
2018-11-26T06:50:57.835Z,98976.27
2018-11-26T06:53:27.347Z,98977.92
2018-11-26T06:55:56.912Z,98970.86
2018-11-26T06:58:26.864Z,98962.79
2018-11-26T07:00:56.383Z,98958.80
2018-11-26T07:03:25.967Z,98948.09
2018-11-26T07:05:55.479Z,98942.79
2018-11-26T07:08:25.055Z,98940.36
2018-11-26T07:10:54.683Z,98942.52
2018-11-26T07:13:24.279Z,98955.26
2018-11-26T07:15:53.824Z,98942.63
2018-11-26T07:18:23.459Z,98942.46
2018-11-26T07:20:53.033Z,98934.16
2018-11-26T07:23:22.711Z,98920.77
2018-11-26T07:25:53.070Z,98909.98
2018-11-26T07:28:22.577Z,98907.25
2018-11-26T07:30:52.288Z,98914.25
2018-11-26T07:33:21.830Z,98916.92
2018-11-26T07:35:51.464Z,98909.25
2018-11-26T07:38:20.983Z,98913.64
2018-11-26T07:40:50.650Z,98908.30
2018-11-26T07:43:20.400Z,98906.27
2018-11-26T07:45:50.048Z,98911.17
2018-11-26T07:48:19.552Z,98906.94
2018-11-26T07:50:49.473Z,98902.07
2018-11-26T07:53:18.994Z,98907.51
2018-11-26T07:55:48.726Z,98924.11
2018-11-26T07:58:18.316Z,98908.83
2018-11-26T08:00:48.173Z,98911.74
2018-11-26T08:03:17.784Z,98919.21
2018-11-26T08:05:47.392Z,98915.25
2018-11-26T08:08:16.914Z,98933.20
2018-11-26T08:10:46.478Z,98929.47
2018-11-26T08:13:16.123Z,98930.31
2018-11-26T08:15:45.692Z,98933.29
2018-11-26T08:18:16.365Z,98939.96
2018-11-26T08:20:46.027Z,98789.84
2018-11-26T08:23:15.626Z,98931.08
2018-11-26T08:25:45.211Z,98935.84
2018-11-26T08:28:14.834Z,98936.58
2018-11-26T08:30:44.392Z,98930.73
2018-11-26T08:33:13.967Z,98936.62
2018-11-26T08:35:43.527Z,98935.13
2018-11-26T08:38:18.962Z,98937.46
2018-11-26T08:40:49.940Z,98935.54
2018-11-26T08:43:20.451Z,98937.56
2018-11-26T08:45:55.363Z,98933.72
2018-11-26T08:48:29.903Z,98945.41
2018-11-26T08:51:01.513Z,98928.27
2018-11-26T08:53:31.311Z,98922.56
2018-11-26T08:56:00.891Z,98922.70
2018-11-26T08:58:30.426Z,98904.14
2018-11-26T09:01:05.024Z,98908.20
2018-11-26T09:03:39.730Z,98899.70
2018-11-26T09:06:09.565Z,98903.81
2018-11-26T09:08:40.037Z,98891.62
2018-11-26T09:11:10.303Z,98806.01
2018-11-26T09:13:39.871Z,98860.72
2018-11-26T09:16:09.448Z,98860.59
2018-11-26T09:18:38.966Z,98848.41
2018-11-26T09:21:09.048Z,98861.18
2018-11-26T09:23:38.636Z,98854.00
2018-11-26T09:26:08.355Z,98851.38
2018-11-26T09:28:37.891Z,98859.84
2018-11-26T09:31:07.544Z,98853.11
2018-11-26T09:33:37.278Z,98835.04
2018-11-26T09:36:06.852Z,98819.45
2018-11-26T09:38:36.489Z,98805.37
2018-11-26T09:41:06.119Z,98829.61
2018-11-26T09:43:35.884Z,98811.31
2018-11-26T09:46:05.791Z,98816.08
2018-11-26T09:48:35.422Z,98803.80
2018-11-26T09:51:04.952Z,98806.90
2018-11-26T09:53:34.533Z,98802.97
2018-11-26T09:56:04.682Z,98801.88
2018-11-26T09:58:33.667Z,98789.53
2018-11-26T10:01:03.233Z,98780.36
2018-11-26T10:03:32.824Z,98787.75
2018-11-26T10:06:02.412Z,98788.64
2018-11-26T10:08:32.016Z,98784.43
2018-11-26T10:11:01.623Z,98782.33
2018-11-26T10:13:31.176Z,98776.38
2018-11-26T10:16:00.867Z,98658.46
2018-11-26T10:18:30.378Z,98793.80
2018-11-26T10:20:59.907Z,98658.60
2018-11-26T10:23:29.477Z,98785.50
2018-11-26T10:25:59.070Z,98771.71
2018-11-26T10:28:28.772Z,98766.05
2018-11-26T10:30:58.221Z,98638.48
2018-11-26T10:33:27.839Z,98644.02
2018-11-26T10:35:57.435Z,98761.23
2018-11-26T10:38:26.987Z,98762.61
2018-11-26T10:40:56.653Z,98764.00
2018-11-26T10:43:26.167Z,98757.78
2018-11-26T10:45:55.726Z,98753.09
2018-11-26T10:48:25.256Z,98765.31
2018-11-26T10:50:54.842Z,98750.70
2018-11-26T10:53:24.397Z,98746.68
2018-11-26T10:55:54.187Z,98731.55
2018-11-26T10:58:24.631Z,98731.58
2018-11-26T11:01:02.326Z,98739.97
2018-11-26T11:03:31.929Z,98764.86
2018-11-26T11:06:01.510Z,98764.21
2018-11-26T11:08:31.473Z,98764.44
2018-11-26T11:11:00.583Z,98772.59
2018-11-26T11:13:30.163Z,98767.17
2018-11-26T11:15:59.703Z,98771.78
2018-11-26T11:18:29.224Z,98768.20
2018-11-26T11:20:58.740Z,98761.98
2018-11-26T11:23:28.301Z,98762.72
2018-11-26T11:25:58.012Z,98753.23
2018-11-26T11:28:27.646Z,98760.85
2018-11-26T11:30:57.200Z,98738.38
2018-11-26T11:35:56.244Z,98734.80
2018-11-26T11:38:25.748Z,98718.24
2018-11-26T11:40:55.452Z,98719.33
2018-11-26T11:43:24.964Z,98727.47
2018-11-26T11:45:54.633Z,98725.61
2018-11-26T11:48:24.193Z,98735.55
2018-11-26T11:50:53.708Z,98721.48
2018-11-26T11:53:23.337Z,98727.21
2018-11-26T11:55:52.869Z,98728.28
2018-11-26T11:58:22.513Z,98721.23
2018-11-26T12:00:52.463Z,98722.05
2018-11-26T12:03:22.232Z,98718.03
2018-11-26T12:05:51.808Z,98719.64
2018-11-26T12:08:21.410Z,98715.83
2018-11-26T12:10:51.177Z,98588.31
2018-11-26T12:13:20.774Z,98721.27
2018-11-26T12:15:52.653Z,98714.78
2018-11-26T12:18:22.223Z,98721.62
2018-11-26T12:20:51.757Z,98712.07
2018-11-26T12:23:21.355Z,98707.06
2018-11-26T12:25:50.904Z,98707.68
2018-11-26T12:28:20.427Z,98713.13
2018-11-26T12:30:50.016Z,98696.61
2018-11-26T12:33:19.644Z,98706.69
2018-11-26T12:35:49.161Z,98702.38
2018-11-26T12:38:18.725Z,98700.73
2018-11-26T12:40:48.305Z,98686.41
2018-11-26T12:43:17.909Z,98685.87
2018-11-26T12:45:47.537Z,98688.06
2018-11-26T12:48:17.078Z,98675.86
2018-11-26T12:50:46.709Z,98688.33
2018-11-26T12:53:16.251Z,98686.16
2018-11-26T12:55:45.798Z,98689.94
2018-11-26T12:58:15.377Z,98693.20
2018-11-26T13:00:44.979Z,98695.95
2018-11-26T13:03:14.809Z,98702.73
2018-11-26T13:05:44.576Z,98679.67
2018-11-26T13:08:14.115Z,98682.94
2018-11-26T13:10:43.801Z,98683.01
2018-11-26T13:13:13.320Z,98698.73
2018-11-26T13:15:43.176Z,98572.33
2018-11-26T13:18:13.303Z,98695.77
2018-11-26T13:20:42.870Z,98692.24
2018-11-26T13:23:12.425Z,98688.20
2018-11-26T13:25:42.364Z,98670.02
2018-11-26T13:28:11.616Z,98685.77
2018-11-26T13:30:47.978Z,98556.45
2018-11-26T13:33:18.505Z,98690.13
2018-11-26T13:35:49.179Z,98669.77
2018-11-26T13:38:18.549Z,98657.58
2018-11-26T13:40:48.045Z,98667.62
2018-11-26T13:43:19.180Z,98658.38
2018-11-26T13:45:49.594Z,98651.61
2018-11-26T13:48:19.850Z,98664.89
2018-11-26T13:50:54.736Z,98669.78
2018-11-26T13:53:24.337Z,98668.70
2018-11-26T13:55:53.935Z,98667.61
2018-11-26T13:58:23.529Z,98682.52
2018-11-26T14:00:53.159Z,98675.47
2018-11-26T14:03:22.798Z,98671.38
2018-11-26T14:05:52.316Z,98674.37
2018-11-26T14:08:21.948Z,98657.26
2018-11-26T14:10:51.533Z,98662.14
2018-11-26T14:13:21.139Z,98658.06
2018-11-26T14:15:50.719Z,98667.30
2018-11-26T14:18:20.260Z,98676.83
2018-11-26T14:20:49.816Z,98689.59
2018-11-26T14:23:19.369Z,98692.84
2018-11-26T14:25:48.920Z,98689.30
2018-11-26T14:28:18.712Z,98685.22
2018-11-26T14:30:48.268Z,98687.39
2018-11-26T14:33:17.829Z,98689.04
2018-11-26T14:35:47.408Z,98679.52
2018-11-26T14:38:16.888Z,98677.09
2018-11-26T14:40:48.037Z,98679.54
2018-11-26T14:43:17.793Z,98675.98
2018-11-26T14:45:47.303Z,98674.92
2018-11-26T14:48:16.909Z,98675.17
2018-11-26T14:50:46.627Z,98672.75
2018-11-26T14:53:17.192Z,98665.97
2018-11-26T14:55:46.708Z,98671.66
2018-11-26T14:58:16.241Z,98521.48
2018-11-26T15:00:45.788Z,98669.48
2018-11-26T15:03:15.340Z,98671.95
2018-11-26T15:05:44.955Z,98672.20
2018-11-26T15:08:14.464Z,98671.94
2018-11-26T15:10:44.041Z,98681.44
2018-11-26T15:13:13.584Z,98688.52
2018-11-26T15:15:43.226Z,98697.98
2018-11-26T15:18:12.829Z,98700.16
2018-11-26T15:20:42.357Z,98711.53
2018-11-26T15:23:11.884Z,98701.22
2018-11-26T15:25:41.578Z,98705.55
2018-11-26T15:28:13.206Z,98700.13
2018-11-26T15:30:42.793Z,98707.16
2018-11-26T15:33:12.375Z,98717.76
2018-11-26T15:35:41.885Z,98716.92
2018-11-26T15:38:11.489Z,98705.77
2018-11-26T15:40:41.055Z,98700.86
2018-11-26T15:43:10.562Z,98702.25
2018-11-26T15:45:40.141Z,98704.67
2018-11-26T15:48:10.889Z,98697.31
2018-11-26T15:50:40.541Z,98700.02
2018-11-26T15:53:10.428Z,98698.67
2018-11-26T15:55:40.029Z,98698.41
2018-11-26T15:58:10.243Z,98698.18
2018-11-26T16:00:39.833Z,98697.37
2018-11-26T16:03:09.449Z,98696.57
2018-11-26T16:05:38.976Z,98690.52
2018-11-26T16:08:10.040Z,98684.81
2018-11-26T16:10:39.557Z,98681.03
2018-11-26T16:13:10.061Z,98684.30
2018-11-26T16:15:43.592Z,98678.32
2018-11-26T16:18:20.905Z,98681.03
2018-11-26T16:20:51.245Z,98689.17
2018-11-26T16:23:20.768Z,98693.49
2018-11-26T16:25:50.437Z,98685.91
2018-11-26T16:28:23.073Z,98691.04
2018-11-26T16:30:52.945Z,98698.36
2018-11-26T16:33:22.448Z,98696.16
2018-11-26T16:35:52.037Z,98694.55
2018-11-26T16:38:21.529Z,98693.20
2018-11-26T16:40:51.060Z,98686.97
2018-11-26T16:43:20.554Z,98699.72
2018-11-26T16:45:50.078Z,98691.84
2018-11-26T16:48:19.625Z,98699.42
2018-11-26T16:50:49.208Z,98708.11
2018-11-26T16:53:19.429Z,98711.92
2018-11-26T16:55:48.305Z,98701.08
2018-11-26T16:58:17.784Z,98686.71
2018-11-26T17:00:47.396Z,98673.70
2018-11-26T17:03:16.884Z,98678.03
2018-11-26T17:05:46.480Z,98691.84
2018-11-26T17:08:16.457Z,98691.30
2018-11-26T17:10:46.057Z,98694.81
2018-11-26T17:13:15.708Z,98701.59
2018-11-26T17:15:45.253Z,98704.04
2018-11-26T17:18:14.784Z,98686.67
2018-11-26T17:20:44.304Z,98690.48
2018-11-26T17:23:13.790Z,98690.74
2018-11-26T17:25:43.296Z,98707.30
2018-11-26T17:28:12.825Z,98706.20
2018-11-26T17:30:42.561Z,98714.63
2018-11-26T17:33:12.801Z,98716.80
2018-11-26T17:35:42.371Z,98716.50
2018-11-26T17:38:11.861Z,98709.20
2018-11-26T17:40:41.612Z,98710.82
2018-11-26T17:43:13.201Z,98714.34
2018-11-26T17:45:42.737Z,98724.92
2018-11-26T17:48:12.270Z,98735.78
2018-11-26T17:50:42.832Z,98733.06
2018-11-26T17:53:15.736Z,98744.97
2018-11-26T17:55:47.948Z,98753.34
2018-11-26T17:58:17.780Z,98751.99
2018-11-26T18:00:49.048Z,98750.91
2018-11-26T18:03:18.781Z,98745.70
2018-11-26T18:05:48.294Z,98759.25
2018-11-26T18:08:18.614Z,98756.25
2018-11-26T18:10:48.164Z,98752.18
2018-11-26T18:13:17.841Z,98736.45
2018-11-26T18:15:47.418Z,98741.34
2018-11-26T18:18:18.157Z,98744.05
2018-11-26T18:20:48.133Z,98735.91
2018-11-26T18:23:17.704Z,98728.34
2018-11-26T18:25:47.272Z,98736.47
2018-11-26T18:28:17.620Z,98738.67
2018-11-26T18:30:49.456Z,98738.13
2018-11-26T18:33:18.975Z,98747.87
2018-11-26T18:35:49.125Z,98748.67
2018-11-26T18:38:18.709Z,98672.52
2018-11-26T18:40:49.976Z,98734.00
2018-11-26T18:43:19.564Z,98735.05
2018-11-26T18:45:49.228Z,98726.91
2018-11-26T18:48:18.713Z,98727.16
2018-11-26T18:50:48.247Z,98737.98
2018-11-26T18:53:17.739Z,98713.30
2018-11-26T18:55:47.304Z,98739.02
2018-11-26T18:58:16.792Z,98740.62
2018-11-26T19:00:49.993Z,98760.38
2018-11-26T19:03:20.506Z,98756.25
2018-11-26T19:05:53.220Z,98751.94
2018-11-26T19:08:22.745Z,98747.86
2018-11-26T19:10:58.090Z,98748.11
2018-11-26T19:13:29.629Z,98750.27
2018-11-26T19:16:16.240Z,98743.80
2018-11-26T19:18:45.764Z,98752.20
2018-11-26T19:21:15.246Z,98756.82
2018-11-26T19:23:44.796Z,98761.72
2018-11-26T19:26:14.321Z,98761.44
2018-11-26T19:28:43.888Z,98743.58
2018-11-26T19:31:13.428Z,98748.73
2018-11-26T19:33:42.999Z,98754.16
2018-11-26T19:36:12.550Z,98751.70
2018-11-26T19:38:42.034Z,98744.39
2018-11-26T19:41:11.561Z,98750.09
2018-11-26T19:43:41.056Z,98742.76
2018-11-26T19:46:10.592Z,98734.63
2018-11-26T19:48:40.177Z,98734.08
2018-11-26T19:51:09.680Z,98736.78
2018-11-26T19:53:39.274Z,98730.81
2018-11-26T19:56:08.829Z,98716.16
2018-11-26T19:58:38.380Z,98721.03
2018-11-26T20:01:07.930Z,98722.13
2018-11-26T20:03:40.044Z,98726.45
2018-11-26T20:06:10.899Z,98716.70
2018-11-26T20:08:41.048Z,98713.95
2018-11-26T20:11:11.059Z,98724.78
2018-11-26T20:13:40.624Z,98719.34
2018-11-26T20:16:15.821Z,98732.33
2018-11-26T20:18:46.571Z,98729.61
2018-11-26T20:21:16.108Z,98726.61
2018-11-26T20:23:45.599Z,98723.34
2018-11-26T20:26:15.142Z,98727.69
2018-11-26T20:28:44.633Z,98713.60
2018-11-26T20:31:14.164Z,98723.33
2018-11-26T20:33:43.684Z,98728.48
2018-11-26T20:36:14.181Z,98737.13
2018-11-26T20:38:43.707Z,98733.86
2018-11-26T20:41:13.998Z,98730.88
2018-11-26T20:43:43.548Z,98749.55
2018-11-26T20:46:13.099Z,98761.72
2018-11-26T20:48:42.781Z,98767.61
2018-11-26T20:51:12.298Z,98756.78
2018-11-26T20:53:42.629Z,98758.41
2018-11-26T20:56:14.762Z,98767.08
2018-11-26T20:58:44.668Z,98755.97
2018-11-26T21:01:14.247Z,98766.26
2018-11-26T21:03:44.070Z,98763.55
2018-11-26T21:06:13.921Z,98761.13
2018-11-26T21:08:43.719Z,98756.78
2018-11-26T21:11:13.572Z,98744.59
2018-11-26T21:13:43.412Z,98750.87
2018-11-26T21:16:13.256Z,98632.03
2018-11-26T21:18:43.100Z,98764.67
2018-11-26T21:21:12.915Z,98765.53
2018-11-26T21:23:42.805Z,98769.60
2018-11-26T21:26:12.613Z,98770.46
2018-11-26T21:28:42.461Z,98773.44
2018-11-26T21:31:12.316Z,98776.69
2018-11-26T21:33:42.148Z,98762.05
2018-11-26T21:36:11.948Z,98762.35
2018-11-26T21:38:42.077Z,98766.97
2018-11-26T21:41:11.894Z,98765.88
2018-11-26T21:43:41.786Z,98762.92
2018-11-26T21:46:12.115Z,98753.20
2018-11-26T21:48:41.552Z,98755.36
2018-11-26T21:51:11.377Z,98743.43
2018-11-26T21:53:41.192Z,98743.48
2018-11-26T21:56:11.038Z,98750.52
2018-11-26T21:58:40.832Z,98745.91
2018-11-26T22:01:10.992Z,98754.08
2018-11-26T22:03:40.806Z,98756.25
2018-11-26T22:06:10.668Z,98768.41
2018-11-26T22:08:40.495Z,98774.89
2018-11-26T22:11:10.339Z,98779.25
2018-11-26T22:13:40.141Z,98770.03
2018-11-26T22:16:10.276Z,98775.21
2018-11-26T22:18:39.840Z,98771.44
2018-11-26T22:21:09.674Z,98770.35
2018-11-26T22:23:39.584Z,98775.27
2018-11-26T22:26:09.384Z,98763.02
2018-11-26T22:28:39.249Z,98766.02
2018-11-26T22:31:09.116Z,98763.03
2018-11-26T22:33:38.996Z,98783.10
2018-11-26T22:36:08.798Z,98787.17
2018-11-26T22:38:38.640Z,98669.28
2018-11-26T22:41:08.168Z,98790.17
2018-11-26T22:43:38.186Z,98787.73
2018-11-26T22:46:07.728Z,98785.58
2018-11-26T22:48:37.240Z,98792.91
2018-11-26T22:51:06.792Z,98784.23
2018-11-26T22:53:36.388Z,98786.44
2018-11-26T22:56:05.961Z,98793.77
2018-11-26T22:58:35.452Z,98791.33
2018-11-26T23:01:05.108Z,98789.72
2018-11-26T23:03:34.641Z,98783.75
2018-11-26T23:06:04.188Z,98783.50
2018-11-26T23:08:33.716Z,98777.54
2018-11-26T23:11:03.245Z,98783.25
2018-11-26T23:13:32.772Z,98798.97
2018-11-26T23:16:02.316Z,98796.25
2018-11-26T23:18:31.845Z,98789.48
2018-11-26T23:21:01.363Z,98794.61
2018-11-26T23:23:30.868Z,98788.38
2018-11-26T23:26:00.383Z,98790.54
2018-11-26T23:28:29.859Z,98792.98
2018-11-26T23:30:59.395Z,98796.50
2018-11-26T23:33:28.945Z,98789.73
2018-11-26T23:35:58.503Z,98795.70
2018-11-26T23:38:28.045Z,98795.70
2018-11-26T23:40:57.525Z,98794.34
2018-11-26T23:43:27.246Z,98794.34
2018-11-26T23:45:56.816Z,98805.44
2018-11-26T23:48:26.365Z,98805.18
2018-11-26T23:50:55.843Z,98812.50
2018-11-26T23:53:25.381Z,98798.95
2018-11-26T23:55:54.875Z,98806.92
2018-11-26T23:58:24.369Z,98812.41
